CYRT

Rankin Inlet Airport

Airport
ICAO code
CYRT
Summary
ICAO Region
NAM
ICAO Territory
Location

Rankin Inlet, Nunavut,

Coordinates
62° 48' 35" N , 92° 6' 40" W
KCC
Airport BS
Non Avian Wildlife Hazards to Aircraft
Airport CFIT
Altimeter Temperature Error Correction
Airport GND
Aircraft Ground De/Anti Icing
Metar
CYRT 141904Z 19005KT 15SM -SHRA FEW034 OVC048 06/02 A2984 RMK SC1SC7 CVCTV CLD EMBD SLP108

Description

Airport serving Rankin Inlet, Nunavut.

Climatology

Tundra climate (Köppen climate classification ET) - warmest month has an average temperature of 0 - 10 degrees C.

Runways

Designator Length Width Surface Rops
13T/31T 1829 46 ASP No/No

Airport map

Aerial View

SKYbrary Partners:

Safety knowledge contributed by: